createdAt,value
2022-10-30T00:01:56.674Z,6.68
2022-10-30T00:04:23.510Z,7.18
2022-10-30T00:06:50.095Z,6.25
2022-10-30T00:09:16.785Z,6.90
2022-10-30T00:11:43.405Z,7.55
2022-10-30T00:14:09.960Z,6.30
2022-10-30T00:16:36.505Z,6.20
2022-10-30T00:19:03.444Z,5.57
2022-10-30T00:21:29.953Z,6.45
2022-10-30T00:23:56.515Z,7.35
2022-10-30T00:26:23.810Z,5.50
2022-10-30T00:28:55.762Z,6.70
2022-10-30T00:31:22.860Z,6.40
2022-10-30T00:33:51.426Z,6.15
2022-10-30T00:36:18.211Z,6.32
2022-10-30T00:38:44.781Z,5.50
2022-10-30T00:41:16.201Z,6.53
2022-10-30T00:43:43.001Z,8.70
2022-10-30T00:46:18.253Z,4.97
2022-10-30T00:48:48.489Z,6.32
2022-10-30T00:51:15.361Z,6.07
2022-10-30T00:53:43.174Z,5.30
2022-10-30T00:56:11.847Z,6.78
2022-10-30T00:58:48.508Z,4.32
2022-10-30T01:01:19.843Z,5.80
2022-10-30T01:03:49.794Z,5.03
2022-10-30T01:06:17.244Z,6.03
2022-10-30T01:08:45.470Z,6.88
2022-10-30T01:11:12.483Z,5.70
2022-10-30T01:13:41.173Z,5.97
2022-10-30T01:16:31.637Z,6.20
2022-10-30T01:19:24.369Z,6.03
2022-10-30T01:21:56.515Z,5.85
2022-10-30T01:27:26.294Z,5.10
2022-10-30T01:30:19.874Z,6.18
2022-10-30T01:33:22.010Z,6.25
2022-10-30T01:36:33.090Z,5.30
2022-10-30T01:39:04.279Z,5.95
2022-10-30T01:41:30.829Z,7.25
2022-10-30T01:44:03.577Z,6.22
2022-10-30T01:46:59.111Z,4.28
2022-10-30T01:49:48.703Z,6.22
2022-10-30T01:52:30.315Z,6.47
2022-10-30T01:55:04.993Z,6.20
2022-10-30T01:57:40.549Z,6.80
2022-10-30T02:00:12.602Z,6.40
2022-10-30T02:02:39.267Z,6.80
2022-10-30T02:05:10.149Z,5.55
2022-10-30T02:07:36.887Z,5.95
2022-10-30T02:10:04.509Z,6.78
2022-10-30T02:12:31.443Z,6.60
2022-10-30T02:15:00.296Z,5.15
2022-10-30T02:17:27.969Z,5.82
2022-10-30T02:19:54.541Z,4.60
2022-10-30T02:22:21.161Z,6.50
2022-10-30T02:24:47.772Z,7.35
2022-10-30T02:27:14.328Z,6.97
2022-10-30T02:29:40.973Z,5.22
2022-10-30T02:32:07.590Z,5.00
2022-10-30T02:34:34.125Z,6.43
2022-10-30T02:37:00.687Z,5.97
2022-10-30T02:39:27.228Z,6.05
2022-10-30T02:41:54.127Z,5.22
2022-10-30T02:44:20.627Z,6.32
2022-10-30T02:46:47.165Z,6.13
2022-10-30T02:49:13.729Z,5.28
2022-10-30T02:51:40.266Z,5.47
2022-10-30T02:54:06.841Z,5.75
2022-10-30T02:56:33.456Z,6.53
2022-10-30T02:59:00.108Z,3.85
2022-10-30T03:01:26.748Z,4.60
2022-10-30T03:03:53.361Z,5.32
2022-10-30T03:06:19.933Z,5.53
2022-10-30T03:08:46.549Z,4.55
2022-10-30T03:11:15.730Z,4.85
2022-10-30T03:13:43.611Z,5.90
2022-10-30T03:16:13.300Z,4.57
2022-10-30T03:18:40.369Z,4.43
2022-10-30T03:21:08.831Z,4.65
2022-10-30T03:23:35.905Z,4.38
2022-10-30T03:26:02.927Z,5.55
2022-10-30T03:28:31.413Z,5.68
2022-10-30T03:31:15.323Z,4.63
2022-10-30T03:33:42.233Z,4.75
2022-10-30T03:36:10.272Z,4.63
2022-10-30T03:38:36.991Z,6.05
2022-10-30T03:41:04.345Z,4.43
2022-10-30T03:43:30.890Z,4.43
2022-10-30T03:45:57.691Z,3.80
2022-10-30T03:48:27.012Z,4.78
2022-10-30T03:50:54.667Z,6.90
2022-10-30T03:53:23.208Z,6.53
2022-10-30T03:55:50.713Z,5.63
2022-10-30T03:58:17.261Z,6.65
2022-10-30T04:00:43.836Z,7.55
2022-10-30T04:03:11.456Z,4.07
2022-10-30T04:05:38.427Z,5.40
2022-10-30T04:08:08.048Z,4.90
2022-10-30T04:10:35.150Z,6.32
2022-10-30T04:13:03.247Z,7.18
2022-10-30T04:15:29.985Z,7.30
2022-10-30T04:17:56.837Z,5.97
2022-10-30T04:20:24.911Z,6.22
2022-10-30T04:23:02.912Z,5.35
2022-10-30T04:25:30.294Z,5.75
2022-10-30T04:27:57.373Z,6.93
2022-10-30T04:30:27.680Z,7.10
2022-10-30T04:32:56.090Z,7.30
2022-10-30T04:35:25.194Z,6.07
2022-10-30T04:37:56.557Z,6.72
2022-10-30T04:40:25.107Z,5.88
2022-10-30T04:42:52.274Z,6.50
2022-10-30T04:45:19.084Z,5.22
2022-10-30T04:47:46.405Z,6.43
2022-10-30T04:50:13.712Z,5.60
2022-10-30T04:52:40.307Z,6.85
2022-10-30T04:55:08.140Z,6.00
2022-10-30T04:57:36.875Z,6.03
2022-10-30T05:00:08.449Z,7.75
2022-10-30T05:02:36.914Z,5.13
2022-10-30T05:05:04.680Z,5.65
2022-10-30T05:07:31.569Z,5.70
2022-10-30T05:09:58.123Z,6.35
2022-10-30T05:12:24.686Z,6.28
2022-10-30T05:14:51.281Z,6.35
2022-10-30T05:17:17.921Z,6.78
2022-10-30T05:19:44.487Z,6.88
2022-10-30T05:22:11.044Z,5.70
2022-10-30T05:24:37.595Z,5.25
2022-10-30T05:27:04.255Z,7.50
2022-10-30T05:29:30.847Z,4.32
2022-10-30T05:31:57.397Z,7.72
2022-10-30T05:34:24.170Z,6.03
2022-10-30T05:36:50.692Z,5.30
2022-10-30T05:39:17.271Z,7.45
2022-10-30T05:41:43.856Z,7.95
2022-10-30T05:44:10.395Z,6.60
2022-10-30T05:46:36.992Z,7.93
2022-10-30T05:49:04.020Z,5.38
2022-10-30T05:51:30.727Z,4.40
2022-10-30T05:53:57.277Z,7.55
2022-10-30T05:56:23.882Z,6.68
2022-10-30T05:58:51.024Z,6.65
2022-10-30T06:01:18.281Z,4.72
2022-10-30T06:03:45.456Z,4.90
2022-10-30T06:06:12.045Z,5.55
2022-10-30T06:08:38.602Z,5.88
2022-10-30T06:11:05.174Z,7.07
2022-10-30T06:13:31.774Z,6.05
2022-10-30T06:15:58.359Z,5.43
2022-10-30T06:18:25.037Z,6.45
2022-10-30T06:20:51.587Z,6.95
2022-10-30T06:23:18.185Z,4.68
2022-10-30T06:25:44.771Z,5.78
2022-10-30T06:28:11.699Z,6.63
2022-10-30T06:30:38.282Z,7.47
2022-10-30T06:33:05.814Z,6.55
2022-10-30T06:35:32.761Z,6.95
2022-10-30T06:38:00.363Z,7.90
2022-10-30T06:40:28.183Z,6.78
2022-10-30T06:42:55.166Z,7.03
2022-10-30T06:45:23.670Z,6.93
2022-10-30T06:47:50.516Z,8.20
2022-10-30T06:50:19.402Z,8.45
2022-10-30T06:52:46.070Z,7.38
2022-10-30T06:55:12.872Z,7.00
2022-10-30T06:57:39.419Z,9.15
2022-10-30T07:00:07.705Z,7.20
2022-10-30T07:02:34.801Z,5.50
2022-10-30T07:05:01.498Z,6.07
2022-10-30T07:07:28.660Z,8.27
2022-10-30T07:09:55.227Z,9.45
2022-10-30T07:12:21.782Z,6.43
2022-10-30T07:14:48.336Z,4.45
2022-10-30T07:17:14.976Z,6.88
2022-10-30T07:19:41.533Z,6.93
2022-10-30T07:22:08.115Z,7.22
2022-10-30T07:24:34.691Z,6.85
2022-10-30T07:27:01.286Z,6.75
2022-10-30T07:29:27.861Z,8.30
2022-10-30T07:32:09.105Z,7.68
2022-10-30T07:34:35.721Z,6.82
2022-10-30T07:37:02.318Z,6.25
2022-10-30T07:39:28.923Z,7.15
2022-10-30T07:41:55.458Z,6.50
2022-10-30T07:44:22.142Z,6.80
2022-10-30T07:46:48.802Z,7.32
2022-10-30T07:49:15.326Z,7.32
2022-10-30T07:51:41.913Z,6.50
2022-10-30T07:54:08.485Z,5.90
2022-10-30T07:56:35.058Z,8.18
2022-10-30T07:59:01.625Z,9.30
2022-10-30T08:01:28.244Z,9.93
2022-10-30T08:03:54.910Z,9.05
2022-10-30T08:06:24.580Z,9.30
2022-10-30T08:11:20.144Z,7.80
2022-10-30T08:13:47.041Z,8.90
2022-10-30T08:16:13.697Z,6.93
2022-10-30T08:18:42.636Z,7.03
2022-10-30T08:21:10.216Z,6.45
2022-10-30T08:23:37.084Z,6.65
2022-10-30T08:26:04.078Z,8.80
2022-10-30T08:28:32.786Z,7.75
2022-10-30T08:31:01.184Z,7.55
2022-10-30T08:33:28.461Z,7.22
2022-10-30T08:35:57.313Z,5.53
2022-10-30T08:38:24.439Z,7.03
2022-10-30T08:40:51.274Z,9.35
2022-10-30T08:43:18.600Z,7.28
2022-10-30T08:45:45.209Z,6.88
2022-10-30T08:48:13.945Z,8.20
2022-10-30T08:50:41.052Z,7.88
2022-10-30T08:53:11.274Z,6.68
2022-10-30T08:55:38.109Z,7.25
2022-10-30T08:58:04.707Z,7.90
2022-10-30T09:00:31.596Z,6.70
2022-10-30T09:02:58.661Z,8.52
2022-10-30T09:05:25.714Z,7.05
2022-10-30T09:08:01.263Z,8.43
2022-10-30T09:10:29.220Z,7.18
2022-10-30T09:12:59.618Z,9.15
2022-10-30T09:15:26.809Z,8.00
2022-10-30T09:17:58.531Z,6.32
2022-10-30T09:20:25.960Z,7.50
2022-10-30T09:22:52.538Z,8.23
2022-10-30T09:25:19.551Z,6.97
2022-10-30T09:27:46.369Z,7.35
2022-10-30T09:30:14.541Z,7.18
2022-10-30T09:32:41.543Z,7.50
2022-10-30T09:35:08.593Z,6.68
2022-10-30T09:37:36.884Z,5.03
2022-10-30T09:40:04.937Z,5.43
2022-10-30T09:42:41.758Z,5.10
2022-10-30T09:45:29.067Z,7.07
2022-10-30T09:48:08.634Z,6.65
2022-10-30T09:50:48.175Z,7.22
2022-10-30T09:53:18.199Z,5.78
2022-10-30T09:55:47.785Z,6.22
2022-10-30T09:58:30.395Z,6.35
2022-10-30T10:01:16.741Z,7.10
2022-10-30T10:04:02.642Z,5.63
2022-10-30T10:06:29.741Z,4.88
2022-10-30T10:09:01.593Z,4.93
2022-10-30T10:11:38.294Z,6.22
2022-10-30T10:14:13.862Z,6.03
2022-10-30T10:16:42.610Z,5.35
2022-10-30T10:19:15.077Z,5.50
2022-10-30T10:21:49.584Z,6.32
2022-10-30T10:24:21.020Z,4.72
2022-10-30T10:26:52.648Z,4.95
2022-10-30T10:29:34.094Z,6.07
2022-10-30T10:32:38.154Z,5.20
2022-10-30T10:35:37.608Z,4.70
2022-10-30T10:38:25.850Z,5.60
2022-10-30T10:41:21.231Z,5.68
2022-10-30T10:44:16.820Z,5.43
2022-10-30T10:46:52.419Z,4.18
2022-10-30T10:50:07.164Z,4.82
2022-10-30T10:53:06.718Z,3.67
2022-10-30T10:55:36.924Z,4.15
2022-10-30T10:58:13.122Z,4.03
2022-10-30T11:00:40.632Z,3.97
2022-10-30T11:03:36.217Z,4.72
2022-10-30T11:06:14.019Z,3.83
2022-10-30T11:08:40.710Z,4.13
2022-10-30T11:11:07.800Z,3.60
2022-10-30T11:13:38.029Z,5.10
2022-10-30T11:16:40.940Z,3.20
2022-10-30T11:19:09.156Z,3.47
2022-10-30T11:21:41.976Z,4.65
2022-10-30T11:24:27.289Z,3.92
2022-10-30T11:26:56.745Z,4.30
2022-10-30T11:29:25.951Z,3.28
2022-10-30T11:32:04.009Z,3.25
2022-10-30T11:34:37.726Z,4.65
2022-10-30T11:37:05.168Z,3.20
2022-10-30T11:39:35.510Z,3.28
2022-10-30T11:42:06.578Z,2.60
2022-10-30T11:44:39.289Z,2.60
2022-10-30T11:47:07.506Z,2.65
2022-10-30T11:49:56.333Z,2.78
2022-10-30T11:52:24.914Z,2.53
2022-10-30T11:55:23.109Z,3.42
2022-10-30T11:57:52.885Z,3.03
2022-10-30T12:00:25.465Z,2.70
2022-10-30T12:02:54.763Z,3.10
2022-10-30T12:05:32.840Z,2.20
2022-10-30T12:08:08.430Z,1.55
2022-10-30T12:10:57.157Z,2.40
2022-10-30T12:13:25.617Z,3.08
2022-10-30T12:16:18.319Z,2.25
2022-10-30T12:19:15.904Z,2.70
2022-10-30T12:21:51.222Z,2.15
2022-10-30T12:24:35.875Z,2.10
2022-10-30T12:30:09.743Z,1.92
2022-10-30T12:32:54.018Z,2.17
2022-10-30T12:35:29.438Z,1.80
2022-10-30T12:37:59.976Z,1.83
2022-10-30T12:40:41.448Z,1.60
2022-10-30T12:43:24.345Z,2.10
2022-10-30T12:45:54.506Z,1.10
2022-10-30T12:48:32.871Z,1.88
2022-10-30T12:54:23.486Z,1.95
2022-10-30T12:56:57.180Z,1.55
2022-10-30T12:59:41.330Z,1.70
2022-10-30T13:02:31.107Z,1.65
2022-10-30T13:05:06.864Z,2.05
2022-10-30T13:07:41.653Z,1.98
2022-10-30T13:10:28.939Z,1.50
2022-10-30T13:13:02.140Z,1.85
2022-10-30T13:15:36.235Z,1.83
2022-10-30T13:18:14.813Z,1.85
2022-10-30T13:20:43.740Z,1.67
2022-10-30T13:23:16.785Z,1.70
2022-10-30T13:25:52.339Z,1.45
2022-10-30T13:28:40.627Z,1.90
2022-10-30T13:31:07.122Z,1.67
2022-10-30T13:33:52.930Z,1.52
2022-10-30T13:36:30.441Z,1.52
2022-10-30T13:39:29.314Z,1.38
2022-10-30T13:42:10.599Z,2.03
2022-10-30T13:44:53.781Z,1.73
2022-10-30T13:47:44.724Z,2.17
2022-10-30T13:52:44.691Z,1.33
2022-10-30T13:55:26.135Z,1.20
2022-10-30T13:57:52.642Z,2.65
2022-10-30T14:00:25.858Z,2.65
2022-10-30T14:03:11.830Z,1.85
2022-10-30T14:05:54.387Z,1.75
2022-10-30T14:08:25.574Z,1.70
2022-10-30T14:10:57.700Z,1.48
2022-10-30T14:13:46.507Z,2.10
2022-10-30T14:16:34.803Z,1.60
2022-10-30T14:19:07.402Z,0.98
2022-10-30T14:21:57.185Z,1.52
2022-10-30T14:24:32.348Z,1.38
2022-10-30T14:27:04.897Z,1.67
2022-10-30T14:29:34.573Z,1.52
2022-10-30T14:32:19.704Z,1.80
2022-10-30T14:34:58.636Z,1.25
2022-10-30T14:37:28.120Z,1.60
2022-10-30T14:39:56.534Z,1.55
2022-10-30T14:42:51.842Z,1.60
2022-10-30T14:45:43.501Z,1.58
2022-10-30T14:48:21.834Z,1.35
2022-10-30T14:53:43.134Z,1.52
2022-10-30T14:56:18.375Z,1.90
2022-10-30T14:59:10.406Z,1.80
2022-10-30T15:01:57.996Z,1.63
2022-10-30T15:04:49.068Z,1.92
2022-10-30T15:07:34.365Z,2.55
2022-10-30T15:10:09.843Z,1.95
2022-10-30T15:12:45.189Z,2.65
2022-10-30T15:15:18.610Z,2.10
2022-10-30T15:17:51.077Z,2.10
2022-10-30T15:20:24.019Z,1.88
2022-10-30T15:23:08.913Z,1.75
2022-10-30T15:25:57.937Z,1.52
2022-10-30T15:28:31.305Z,1.77
2022-10-30T15:31:02.732Z,1.23
2022-10-30T15:33:32.977Z,1.70
2022-10-30T15:35:59.687Z,1.67
2022-10-30T15:38:26.276Z,1.73
2022-10-30T15:41:02.344Z,0.95
2022-10-30T15:43:34.413Z,1.95
2022-10-30T15:46:01.249Z,1.77
2022-10-30T15:48:33.221Z,0.95
2022-10-30T15:51:08.457Z,1.38
2022-10-30T15:53:56.233Z,1.30
2022-10-30T15:57:08.402Z,2.45
2022-10-30T15:59:30.527Z,1.55
2022-10-30T16:01:58.707Z,1.60
2022-10-30T16:04:31.309Z,1.90
2022-10-30T16:07:04.411Z,3.33
2022-10-30T16:09:31.205Z,3.33
2022-10-30T16:12:00.513Z,2.70
2022-10-30T16:14:34.414Z,3.38
2022-10-30T16:17:01.625Z,1.50
2022-10-30T16:19:31.533Z,2.85
2022-10-30T16:21:59.471Z,2.13
2022-10-30T16:24:34.187Z,2.35
2022-10-30T16:27:14.680Z,1.58
2022-10-30T16:29:41.910Z,2.13
2022-10-30T16:34:46.042Z,1.98
2022-10-30T16:37:22.875Z,2.33
2022-10-30T16:39:51.548Z,2.40
2022-10-30T16:42:26.400Z,2.10
2022-10-30T16:45:12.512Z,2.17
2022-10-30T16:47:43.724Z,2.03
2022-10-30T16:50:15.612Z,2.13
2022-10-30T16:52:43.838Z,1.25
2022-10-30T16:55:20.033Z,2.28
2022-10-30T16:57:53.176Z,1.85
2022-10-30T17:00:25.937Z,1.70
2022-10-30T17:02:56.275Z,1.90
2022-10-30T17:05:34.053Z,1.95
2022-10-30T17:08:33.125Z,1.77
2022-10-30T17:11:05.282Z,1.92
2022-10-30T17:13:37.347Z,2.10
2022-10-30T17:18:46.852Z,1.75
2022-10-30T17:21:16.524Z,1.92
2022-10-30T17:23:54.850Z,1.95
2022-10-30T17:28:48.632Z,2.03
2022-10-30T17:31:17.972Z,2.08
2022-10-30T17:34:05.678Z,1.80
2022-10-30T17:36:32.211Z,2.33
2022-10-30T17:38:58.774Z,2.42
2022-10-30T17:41:25.327Z,1.48
2022-10-30T17:43:54.616Z,1.92
2022-10-30T17:46:21.493Z,2.08
2022-10-30T17:48:48.167Z,1.75
2022-10-30T17:51:15.948Z,1.50
2022-10-30T17:53:42.718Z,2.25
2022-10-30T17:56:31.502Z,1.85
2022-10-30T17:58:58.067Z,2.45
2022-10-30T18:01:26.771Z,2.20
2022-10-30T18:03:55.406Z,2.22
2022-10-30T18:06:24.909Z,2.17
2022-10-30T18:08:51.702Z,2.33
2022-10-30T18:11:20.357Z,1.73
2022-10-30T18:13:56.489Z,2.25
2022-10-30T18:16:24.099Z,1.92
2022-10-30T18:18:51.810Z,1.92
2022-10-30T18:21:19.899Z,1.80
2022-10-30T18:23:52.312Z,2.10
2022-10-30T18:26:22.102Z,1.15
2022-10-30T18:28:49.092Z,2.97
2022-10-30T18:31:17.919Z,1.98
2022-10-30T18:33:45.640Z,2.45
2022-10-30T18:36:20.918Z,2.13
2022-10-30T18:38:48.013Z,1.70
2022-10-30T18:41:23.099Z,2.60
2022-10-30T18:43:49.668Z,2.08
2022-10-30T18:46:17.024Z,2.22
2022-10-30T18:48:44.167Z,2.28
2022-10-30T18:51:16.408Z,2.28
2022-10-30T18:53:51.092Z,1.90
2022-10-30T18:56:25.363Z,1.85
2022-10-30T18:58:56.423Z,2.35
2022-10-30T19:01:28.570Z,1.80
2022-10-30T19:03:55.274Z,2.33
2022-10-30T19:06:24.055Z,1.40
2022-10-30T19:08:50.999Z,1.90
2022-10-30T19:11:24.057Z,2.30
2022-10-30T19:13:52.144Z,1.70
2022-10-30T19:16:19.979Z,2.28
2022-10-30T19:18:47.576Z,2.10
2022-10-30T19:21:20.135Z,2.38
2022-10-30T19:23:47.212Z,2.60
2022-10-30T19:26:15.182Z,2.60
2022-10-30T19:28:42.276Z,2.17
2022-10-30T19:31:13.871Z,1.55
2022-10-30T19:33:40.592Z,1.95
2022-10-30T19:36:24.966Z,2.47
2022-10-30T19:38:51.536Z,2.22
2022-10-30T19:41:18.188Z,1.98
2022-10-30T19:43:44.758Z,2.05
2022-10-30T19:46:13.390Z,2.50
2022-10-30T19:48:56.579Z,2.30
2022-10-30T19:51:24.086Z,2.10
2022-10-30T19:53:52.589Z,2.22
2022-10-30T19:56:20.247Z,1.92
2022-10-30T19:58:46.838Z,2.15
2022-10-30T20:01:14.173Z,2.55
2022-10-30T20:03:40.838Z,1.80
2022-10-30T20:06:07.608Z,3.47
2022-10-30T20:08:34.205Z,2.80
2022-10-30T20:11:01.979Z,1.73
2022-10-30T20:13:29.623Z,2.53
2022-10-30T20:15:58.724Z,2.45
2022-10-30T20:18:31.624Z,2.72
2022-10-30T20:21:00.796Z,2.17
2022-10-30T20:23:27.927Z,2.22
2022-10-30T20:26:01.539Z,2.58
2022-10-30T20:28:38.830Z,2.45
2022-10-30T20:31:06.770Z,1.95
2022-10-30T20:33:34.047Z,1.35
2022-10-30T20:36:00.803Z,1.83
2022-10-30T20:38:35.076Z,2.58
2022-10-30T20:41:04.723Z,2.58
2022-10-30T20:43:38.702Z,2.33
2022-10-30T20:46:09.232Z,2.15
2022-10-30T20:48:35.977Z,2.72
2022-10-30T20:51:02.600Z,3.13
2022-10-30T20:53:29.951Z,2.85
2022-10-30T20:55:56.744Z,3.03
2022-10-30T20:58:23.596Z,2.13
2022-10-30T21:00:50.862Z,3.25
2022-10-30T21:03:17.455Z,2.47
2022-10-30T21:05:45.904Z,3.00
2022-10-30T21:08:15.815Z,2.50
2022-10-30T21:10:42.833Z,2.90
2022-10-30T21:13:10.906Z,3.22
2022-10-30T21:15:42.772Z,2.45
2022-10-30T21:18:11.160Z,2.38
2022-10-30T21:20:37.804Z,3.53
2022-10-30T21:23:05.234Z,3.70
2022-10-30T21:25:32.496Z,2.60
2022-10-30T21:28:00.014Z,2.88
2022-10-30T21:30:27.239Z,3.08
2022-10-30T21:32:54.014Z,2.50
2022-10-30T21:35:21.144Z,2.65
2022-10-30T21:37:47.807Z,2.55
2022-10-30T21:40:14.397Z,3.05
2022-10-30T21:42:41.159Z,3.47
2022-10-30T21:45:08.837Z,3.22
2022-10-30T21:47:35.657Z,3.22
2022-10-30T21:50:06.247Z,3.10
2022-10-30T21:52:36.084Z,2.70
2022-10-30T21:55:02.765Z,2.90
2022-10-30T21:57:29.782Z,2.63
2022-10-30T21:59:58.848Z,2.72
2022-10-30T22:02:28.402Z,2.78
2022-10-30T22:04:55.228Z,1.30
2022-10-30T22:07:21.885Z,2.75
2022-10-30T22:09:48.531Z,2.47
2022-10-30T22:12:15.184Z,2.65
2022-10-30T22:14:41.786Z,2.95
2022-10-30T22:17:08.781Z,2.78
2022-10-30T22:19:35.308Z,2.03
2022-10-30T22:22:01.896Z,2.67
2022-10-30T22:24:28.453Z,2.70
2022-10-30T22:26:55.018Z,3.17
2022-10-30T22:29:21.599Z,2.70
2022-10-30T22:31:49.763Z,2.50
2022-10-30T22:34:16.370Z,2.78
2022-10-30T22:36:42.992Z,2.65
2022-10-30T22:39:13.744Z,3.45
2022-10-30T22:41:41.100Z,2.38
2022-10-30T22:44:11.090Z,2.58
2022-10-30T22:46:37.930Z,3.25
2022-10-30T22:49:05.476Z,2.95
2022-10-30T22:51:33.969Z,3.15
2022-10-30T22:54:02.224Z,2.38
2022-10-30T22:56:31.622Z,3.13
2022-10-30T22:59:01.770Z,2.90
2022-10-30T23:01:30.550Z,2.65
2022-10-30T23:03:59.783Z,2.72
2022-10-30T23:06:28.074Z,2.35
2022-10-30T23:08:56.765Z,2.20
2022-10-30T23:11:23.638Z,3.55
2022-10-30T23:13:50.808Z,3.15
2022-10-30T23:16:20.809Z,3.33
2022-10-30T23:18:48.864Z,3.38
2022-10-30T23:21:20.763Z,2.53
2022-10-30T23:23:47.623Z,3.13
2022-10-30T23:26:18.568Z,2.80
2022-10-30T23:28:45.971Z,3.33
2022-10-30T23:31:36.940Z,2.90
2022-10-30T23:36:31.482Z,2.63
2022-10-30T23:39:00.530Z,3.13
2022-10-30T23:41:29.467Z,3.10
2022-10-30T23:44:01.286Z,2.05
2022-10-30T23:46:28.596Z,2.92
2022-10-30T23:48:56.312Z,1.27
2022-10-30T23:51:23.672Z,3.53
2022-10-30T23:53:50.709Z,2.60
2022-10-30T23:56:17.878Z,2.60
2022-10-30T23:58:49.275Z,2.95
